createdAt,value
2023-09-09T00:00:02.678Z,80.12
2023-09-09T00:02:30.767Z,80.50
2023-09-09T00:04:58.963Z,81.27
2023-09-09T00:07:27.086Z,81.11
2023-09-09T00:09:55.254Z,80.75
2023-09-09T00:12:23.180Z,81.45
2023-09-09T00:14:51.072Z,80.54
2023-09-09T00:17:19.406Z,79.83
2023-09-09T00:19:47.496Z,79.66
2023-09-09T00:22:29.241Z,79.40
2023-09-09T00:24:59.171Z,79.41
2023-09-09T00:27:27.994Z,79.81
2023-09-09T00:29:56.053Z,80.24
2023-09-09T00:32:24.607Z,80.56
2023-09-09T00:34:56.190Z,80.43
2023-09-09T00:37:24.207Z,81.43
2023-09-09T00:39:53.552Z,81.59
2023-09-09T00:42:21.453Z,80.93
2023-09-09T00:44:49.329Z,80.83
2023-09-09T00:47:19.367Z,81.78
2023-09-09T00:49:47.657Z,81.85
2023-09-09T00:52:15.637Z,81.69
2023-09-09T00:54:43.807Z,81.38
2023-09-09T00:57:13.977Z,80.92
2023-09-09T00:59:41.962Z,81.18
2023-09-09T01:02:10.109Z,80.86
2023-09-09T01:04:38.125Z,80.97
2023-09-09T01:07:06.330Z,80.74
2023-09-09T01:09:35.382Z,80.54
2023-09-09T01:12:04.954Z,79.91
2023-09-09T01:14:35.019Z,79.59
2023-09-09T01:17:04.084Z,79.49
2023-09-09T01:19:32.769Z,79.27
2023-09-09T01:22:03.781Z,79.34
2023-09-09T01:24:32.181Z,79.51
2023-09-09T01:27:00.090Z,79.79
2023-09-09T01:29:28.048Z,80.16
2023-09-09T01:31:55.957Z,80.86
2023-09-09T01:34:23.903Z,81.20
2023-09-09T01:36:51.917Z,81.68
2023-09-09T01:39:19.766Z,81.61
2023-09-09T01:41:47.813Z,80.93
2023-09-09T01:44:15.751Z,81.03
2023-09-09T01:46:43.602Z,81.06
2023-09-09T01:49:11.696Z,81.50
2023-09-09T01:51:39.827Z,81.95
2023-09-09T01:54:07.724Z,81.99
2023-09-09T01:56:35.549Z,82.46
2023-09-09T01:59:03.442Z,81.92
2023-09-09T02:01:31.910Z,81.86
2023-09-09T02:04:00.166Z,81.97
2023-09-09T02:06:29.791Z,82.49
2023-09-09T02:08:57.931Z,82.28
2023-09-09T02:11:27.149Z,82.35
2023-09-09T02:13:55.241Z,83.13
2023-09-09T02:16:23.629Z,83.73
2023-09-09T02:18:51.637Z,84.07
2023-09-09T02:21:19.743Z,83.83
2023-09-09T02:23:47.798Z,82.79
2023-09-09T02:26:15.710Z,82.50
2023-09-09T02:28:47.267Z,82.10
2023-09-09T02:31:15.215Z,82.20
2023-09-09T02:33:43.351Z,82.34
2023-09-09T02:36:11.447Z,83.02
2023-09-09T02:38:39.437Z,83.39
2023-09-09T02:41:07.311Z,83.94
2023-09-09T02:43:35.478Z,83.98
2023-09-09T02:46:05.549Z,83.99
2023-09-09T02:48:33.586Z,83.26
2023-09-09T02:51:01.570Z,82.89
2023-09-09T02:53:31.316Z,83.67
2023-09-09T02:55:59.214Z,82.97
2023-09-09T02:58:27.132Z,82.89
2023-09-09T03:00:55.102Z,82.78
2023-09-09T03:03:23.124Z,81.97
2023-09-09T03:05:51.318Z,82.44
2023-09-09T03:08:19.142Z,83.02
2023-09-09T03:10:47.317Z,82.45
2023-09-09T03:13:15.224Z,82.35
2023-09-09T03:15:43.132Z,83.03
2023-09-09T03:18:11.044Z,81.87
2023-09-09T03:20:39.175Z,82.41
2023-09-09T03:23:08.348Z,82.26
2023-09-09T03:25:36.213Z,81.77
2023-09-09T03:28:04.507Z,82.22
2023-09-09T03:30:54.798Z,81.13
2023-09-09T03:33:23.046Z,81.07
2023-09-09T03:35:51.312Z,82.01
2023-09-09T03:38:19.441Z,82.61
2023-09-09T03:40:47.337Z,82.79
2023-09-09T03:43:16.134Z,81.65
2023-09-09T03:45:44.116Z,81.40
2023-09-09T03:48:12.061Z,82.34
2023-09-09T03:50:39.916Z,82.32
2023-09-09T03:53:07.910Z,83.71
2023-09-09T03:55:35.956Z,82.37
2023-09-09T03:58:04.209Z,82.49
2023-09-09T04:00:32.176Z,82.03
2023-09-09T04:03:00.323Z,81.53
2023-09-09T04:05:28.735Z,81.81
2023-09-09T04:07:59.543Z,82.18
2023-09-09T04:10:28.124Z,82.41
2023-09-09T04:12:56.194Z,82.80
2023-09-09T04:15:24.031Z,81.96
2023-09-09T04:17:51.946Z,81.99
2023-09-09T04:20:20.223Z,81.61
2023-09-09T04:22:48.125Z,81.62
2023-09-09T04:25:16.044Z,81.00
2023-09-09T04:27:43.916Z,81.14
2023-09-09T04:30:12.799Z,82.53
2023-09-09T04:32:40.648Z,81.83
2023-09-09T04:35:08.774Z,81.53
2023-09-09T04:37:37.248Z,81.37
2023-09-09T04:40:06.530Z,80.97
2023-09-09T04:42:34.460Z,81.63
2023-09-09T04:45:04.784Z,81.88
2023-09-09T04:47:32.777Z,81.60
2023-09-09T04:50:00.732Z,81.31
2023-09-09T04:52:28.766Z,79.21
2023-09-09T04:54:56.626Z,78.90
2023-09-09T04:57:24.604Z,79.11
2023-09-09T04:59:52.510Z,79.36
2023-09-09T05:02:20.487Z,80.36
2023-09-09T05:04:48.363Z,79.75
2023-09-09T05:07:18.293Z,80.49
2023-09-09T05:12:37.321Z,80.22
2023-09-09T05:15:11.596Z,80.34
2023-09-09T05:17:39.491Z,79.97
2023-09-09T05:20:08.316Z,79.71
2023-09-09T05:22:36.220Z,79.70
2023-09-09T05:25:04.663Z,79.37
2023-09-09T05:27:32.551Z,79.08
2023-09-09T05:30:00.399Z,78.99
2023-09-09T05:32:28.297Z,78.93
2023-09-09T05:34:56.222Z,78.91
2023-09-09T05:37:27.917Z,78.86
2023-09-09T05:39:55.950Z,78.72
2023-09-09T05:42:24.507Z,78.55
2023-09-09T05:44:52.465Z,78.39
2023-09-09T05:47:20.333Z,78.23
2023-09-09T05:49:48.379Z,78.16
2023-09-09T05:52:16.858Z,78.09
2023-09-09T05:54:45.223Z,77.99
2023-09-09T05:57:13.419Z,77.89
2023-09-09T05:59:41.631Z,77.74
2023-09-09T06:02:09.879Z,77.48
2023-09-09T06:04:38.143Z,77.29
2023-09-09T06:07:06.432Z,76.88
2023-09-09T06:09:34.374Z,76.67
2023-09-09T06:12:03.516Z,76.42
2023-09-09T06:14:31.591Z,76.25
2023-09-09T06:16:59.570Z,76.06
2023-09-09T06:19:27.557Z,75.88
2023-09-09T06:21:55.420Z,75.48
2023-09-09T06:24:23.263Z,75.03
2023-09-09T06:26:51.277Z,74.67
2023-09-09T06:29:19.294Z,74.66
2023-09-09T06:31:47.447Z,74.35
2023-09-09T06:34:15.564Z,73.89
2023-09-09T06:36:43.536Z,73.72
2023-09-09T06:39:11.518Z,73.38
2023-09-09T06:41:39.525Z,72.85
2023-09-09T06:44:07.715Z,72.30
2023-09-09T06:46:35.725Z,71.94
2023-09-09T06:49:04.800Z,71.21
2023-09-09T06:51:32.627Z,70.88
2023-09-09T06:54:00.484Z,70.64
2023-09-09T06:56:28.472Z,71.18
2023-09-09T06:58:57.876Z,69.42
2023-09-09T07:01:25.780Z,68.64
2023-09-09T07:03:53.676Z,67.52
2023-09-09T07:06:21.633Z,66.67
2023-09-09T07:08:50.862Z,65.49
2023-09-09T07:11:18.850Z,65.56
2023-09-09T07:13:46.805Z,65.68
2023-09-09T07:16:14.696Z,65.56
2023-09-09T07:18:42.670Z,63.70
2023-09-09T07:21:10.708Z,63.14
2023-09-09T07:23:38.876Z,60.90
2023-09-09T07:26:07.528Z,60.43
2023-09-09T07:28:35.646Z,57.82
2023-09-09T07:31:05.500Z,58.03
2023-09-09T07:33:33.798Z,56.55
2023-09-09T07:36:01.688Z,56.76
2023-09-09T07:38:29.724Z,56.35
2023-09-09T07:41:01.668Z,55.05
2023-09-09T07:43:29.738Z,54.43
2023-09-09T07:45:57.786Z,53.79
2023-09-09T07:48:27.029Z,53.40
2023-09-09T07:50:57.096Z,53.46
2023-09-09T07:53:25.185Z,53.46
2023-09-09T07:55:53.155Z,53.00
2023-09-09T07:58:21.096Z,53.01
2023-09-09T08:01:00.406Z,52.51
2023-09-09T08:03:28.536Z,53.17
2023-09-09T08:05:57.443Z,52.89
2023-09-09T08:08:25.612Z,52.99
2023-09-09T08:10:53.625Z,53.01
2023-09-09T08:13:21.901Z,52.54
2023-09-09T08:15:50.137Z,52.57
2023-09-09T08:18:18.367Z,52.71
2023-09-09T08:20:51.444Z,51.95
2023-09-09T08:23:20.251Z,51.64
2023-09-09T08:25:48.267Z,51.16
2023-09-09T08:28:18.535Z,51.45
2023-09-09T08:30:48.437Z,52.01
2023-09-09T08:33:16.616Z,51.78
2023-09-09T08:35:44.778Z,51.95
2023-09-09T08:38:12.755Z,51.64
2023-09-09T08:40:55.631Z,51.40
2023-09-09T08:43:41.892Z,51.79
2023-09-09T08:46:22.210Z,51.87
2023-09-09T08:48:52.260Z,51.55
2023-09-09T08:51:30.410Z,51.31
2023-09-09T08:53:59.004Z,50.99
2023-09-09T08:56:28.079Z,50.77
2023-09-09T08:58:57.479Z,50.77
2023-09-09T09:01:28.157Z,50.66
2023-09-09T09:03:57.552Z,50.75
2023-09-09T09:06:27.742Z,49.86
2023-09-09T09:08:55.865Z,49.59
2023-09-09T09:11:24.412Z,49.67
2023-09-09T09:13:53.006Z,49.85
2023-09-09T09:16:20.991Z,49.83
2023-09-09T09:18:49.224Z,49.61
2023-09-09T09:21:17.156Z,49.77
2023-09-09T09:23:46.954Z,49.74
2023-09-09T09:26:29.335Z,48.91
2023-09-09T09:29:03.060Z,48.74
2023-09-09T09:31:31.411Z,48.69
2023-09-09T09:34:01.074Z,48.50
2023-09-09T09:36:29.327Z,48.68
2023-09-09T09:38:59.759Z,48.89
2023-09-09T09:41:30.821Z,48.05
2023-09-09T09:43:58.852Z,47.28
2023-09-09T09:46:26.897Z,47.63
2023-09-09T09:48:54.851Z,48.06
2023-09-09T09:51:22.758Z,48.13
2023-09-09T09:53:50.640Z,47.61
2023-09-09T09:56:21.187Z,47.67
2023-09-09T09:58:51.723Z,47.95
2023-09-09T10:01:19.743Z,48.14
2023-09-09T10:03:59.843Z,47.57
2023-09-09T10:06:30.349Z,47.48
2023-09-09T10:09:13.091Z,47.54
2023-09-09T10:11:53.401Z,47.02
2023-09-09T10:14:26.450Z,47.01
2023-09-09T10:16:55.035Z,46.70
2023-09-09T10:19:24.811Z,45.99
2023-09-09T10:21:56.472Z,45.24
2023-09-09T10:24:25.794Z,45.38
2023-09-09T10:26:55.572Z,44.83
2023-09-09T10:29:25.154Z,44.29
2023-09-09T10:31:54.175Z,44.07
2023-09-09T10:34:24.028Z,43.56
2023-09-09T10:37:01.894Z,44.05
2023-09-09T10:39:32.969Z,43.82
2023-09-09T10:42:02.307Z,43.83
2023-09-09T10:44:30.353Z,43.67
2023-09-09T10:46:59.295Z,43.44
2023-09-09T10:49:31.981Z,43.67
2023-09-09T10:52:00.381Z,43.83
2023-09-09T10:54:28.481Z,43.81
2023-09-09T10:57:03.837Z,43.40
2023-09-09T10:59:33.840Z,43.72
2023-09-09T11:02:23.375Z,43.52
2023-09-09T11:05:12.455Z,43.68
2023-09-09T11:07:43.378Z,43.58
2023-09-09T11:10:17.553Z,43.43
2023-09-09T11:13:00.231Z,43.06
2023-09-09T11:15:28.515Z,43.05
2023-09-09T11:17:57.091Z,42.92
2023-09-09T11:20:25.624Z,43.15
2023-09-09T11:22:54.057Z,42.88
2023-09-09T11:25:22.411Z,43.46
2023-09-09T11:27:52.081Z,43.60
2023-09-09T11:30:20.541Z,43.40
2023-09-09T11:32:50.126Z,42.94
2023-09-09T11:35:18.462Z,42.58
2023-09-09T11:37:46.564Z,42.51
2023-09-09T11:40:18.784Z,42.01
2023-09-09T11:42:53.716Z,42.23
2023-09-09T11:45:23.937Z,42.64
2023-09-09T11:47:52.156Z,42.41
2023-09-09T11:50:20.351Z,42.37
2023-09-09T11:52:48.380Z,42.16
2023-09-09T11:55:19.268Z,42.31
2023-09-09T11:57:57.439Z,42.25
2023-09-09T12:00:25.807Z,41.47
2023-09-09T12:02:54.435Z,41.94
2023-09-09T12:05:33.649Z,41.75
2023-09-09T12:08:03.510Z,41.80
2023-09-09T12:10:37.918Z,41.88
2023-09-09T12:13:07.556Z,42.40
2023-09-09T12:15:35.849Z,42.54
2023-09-09T12:18:17.348Z,42.41
2023-09-09T12:21:08.389Z,42.49
2023-09-09T12:23:40.205Z,43.36
2023-09-09T12:26:19.995Z,43.53
2023-09-09T12:29:13.507Z,43.61
2023-09-09T12:31:57.334Z,43.78
2023-09-09T12:34:27.962Z,43.54
2023-09-09T12:37:00.918Z,43.52
2023-09-09T12:39:31.736Z,43.33
2023-09-09T12:42:08.926Z,42.91
2023-09-09T12:44:52.213Z,42.67
2023-09-09T12:47:24.916Z,42.75
2023-09-09T12:49:53.903Z,42.38
2023-09-09T12:52:22.025Z,42.43
2023-09-09T12:54:49.953Z,42.38
2023-09-09T12:57:17.879Z,42.48
2023-09-09T12:59:45.762Z,41.96
2023-09-09T13:02:13.691Z,42.59
2023-09-09T13:04:41.613Z,42.67
2023-09-09T13:07:09.437Z,42.77
2023-09-09T13:09:37.375Z,43.07
2023-09-09T13:12:06.204Z,43.20
2023-09-09T13:14:34.396Z,42.72
2023-09-09T13:17:02.463Z,42.98
2023-09-09T13:19:32.032Z,42.92
2023-09-09T13:22:02.647Z,43.49
2023-09-09T13:24:30.529Z,43.16
2023-09-09T13:26:58.730Z,42.46
2023-09-09T13:29:26.729Z,42.83
2023-09-09T13:31:55.662Z,43.21
2023-09-09T13:34:23.687Z,43.27
2023-09-09T13:36:51.783Z,42.98
2023-09-09T13:39:19.846Z,43.38
2023-09-09T13:41:48.077Z,43.17
2023-09-09T13:44:16.164Z,43.36
2023-09-09T13:46:44.223Z,43.55
2023-09-09T13:49:12.505Z,43.28
2023-09-09T13:51:40.778Z,41.94
2023-09-09T13:54:09.249Z,42.36
2023-09-09T13:56:37.337Z,43.20
2023-09-09T13:59:05.714Z,43.63
2023-09-09T14:01:33.682Z,44.13
2023-09-09T14:04:02.129Z,44.25
2023-09-09T14:06:30.291Z,44.46
2023-09-09T14:09:00.870Z,43.95
2023-09-09T14:11:28.848Z,44.08
2023-09-09T14:13:57.852Z,44.39
2023-09-09T14:16:27.654Z,44.39
2023-09-09T14:18:55.744Z,44.73
2023-09-09T14:21:24.906Z,45.17
2023-09-09T14:23:52.954Z,45.52
2023-09-09T14:26:20.955Z,45.57
2023-09-09T14:28:48.915Z,45.35
2023-09-09T14:31:16.960Z,45.23
2023-09-09T14:33:45.539Z,45.38
2023-09-09T14:36:13.527Z,45.47
2023-09-09T14:38:41.430Z,46.03
2023-09-09T14:41:09.405Z,46.51
2023-09-09T14:43:37.406Z,46.96
2023-09-09T14:46:05.792Z,47.25
2023-09-09T14:48:55.195Z,47.53
2023-09-09T14:51:23.444Z,47.74
2023-09-09T14:53:51.776Z,47.90
2023-09-09T14:56:19.924Z,48.15
2023-09-09T14:58:48.397Z,48.36
2023-09-09T15:01:17.177Z,48.69
2023-09-09T15:03:48.038Z,48.98
2023-09-09T15:06:16.324Z,49.05
2023-09-09T15:08:48.325Z,49.25
2023-09-09T15:11:16.600Z,49.50
2023-09-09T15:13:46.932Z,49.68
2023-09-09T15:16:16.906Z,49.99
2023-09-09T15:18:45.456Z,50.00
2023-09-09T15:21:14.374Z,50.34
2023-09-09T15:23:42.915Z,50.46
2023-09-09T15:26:11.320Z,50.87
2023-09-09T15:28:39.380Z,51.23
2023-09-09T15:31:08.232Z,51.40
2023-09-09T15:33:36.886Z,51.89
2023-09-09T15:36:05.366Z,52.26
2023-09-09T15:38:41.168Z,52.52
2023-09-09T15:41:09.475Z,53.03
2023-09-09T15:43:40.067Z,53.10
2023-09-09T15:46:08.545Z,53.47
2023-09-09T15:48:36.803Z,53.78
2023-09-09T15:51:06.195Z,54.06
2023-09-09T15:53:34.531Z,54.29
2023-09-09T15:56:06.631Z,54.87
2023-09-09T15:58:34.687Z,54.98
2023-09-09T16:01:02.999Z,55.34
2023-09-09T16:03:31.185Z,55.41
2023-09-09T16:06:06.512Z,55.78
2023-09-09T16:08:41.372Z,56.01
2023-09-09T16:11:09.924Z,56.16
2023-09-09T16:13:40.782Z,56.31
2023-09-09T16:16:12.180Z,57.16
2023-09-09T16:18:42.727Z,57.59
2023-09-09T16:21:13.989Z,57.79
2023-09-09T16:23:42.075Z,59.34
2023-09-09T16:26:10.223Z,59.51
2023-09-09T16:28:41.900Z,60.22
2023-09-09T16:31:10.882Z,60.09
2023-09-09T16:33:38.990Z,60.90
2023-09-09T16:36:07.620Z,61.55
2023-09-09T16:38:38.756Z,61.97
2023-09-09T16:41:07.613Z,62.15
2023-09-09T16:43:39.696Z,62.80
2023-09-09T16:46:09.160Z,63.27
2023-09-09T16:48:37.916Z,63.50
2023-09-09T16:51:07.842Z,63.81
2023-09-09T16:53:35.791Z,64.13
2023-09-09T16:56:04.109Z,64.03
2023-09-09T16:58:32.200Z,64.84
2023-09-09T17:01:00.223Z,64.76
2023-09-09T17:03:31.031Z,64.84
2023-09-09T17:06:01.770Z,65.18
2023-09-09T17:08:31.192Z,65.18
2023-09-09T17:10:59.339Z,65.46
2023-09-09T17:13:27.848Z,65.75
2023-09-09T17:15:56.223Z,66.09
2023-09-09T17:18:26.956Z,66.38
2023-09-09T17:20:57.110Z,66.61
2023-09-09T17:23:27.487Z,66.97
2023-09-09T17:26:07.171Z,67.13
2023-09-09T17:28:36.783Z,67.22
2023-09-09T17:31:05.969Z,67.68
2023-09-09T17:33:34.271Z,67.77
2023-09-09T17:36:02.543Z,67.98
2023-09-09T17:38:30.978Z,68.04
2023-09-09T17:41:01.465Z,68.34
2023-09-09T17:43:29.511Z,68.90
2023-09-09T17:45:57.583Z,68.62
2023-09-09T17:48:27.521Z,68.79
2023-09-09T17:50:55.685Z,69.05
2023-09-09T17:53:24.630Z,69.57
2023-09-09T17:55:52.604Z,69.22
2023-09-09T17:58:20.600Z,69.35
2023-09-09T18:00:48.725Z,69.52
2023-09-09T18:03:16.745Z,70.06
2023-09-09T18:05:44.926Z,70.25
2023-09-09T18:08:12.834Z,70.17
2023-09-09T18:10:42.396Z,70.08
2023-09-09T18:13:10.375Z,70.32
2023-09-09T18:15:38.549Z,70.85
2023-09-09T18:18:08.028Z,70.93
2023-09-09T18:20:35.994Z,71.25
2023-09-09T18:23:04.295Z,71.36
2023-09-09T18:25:32.241Z,71.67
2023-09-09T18:28:00.217Z,71.87
2023-09-09T18:30:28.339Z,71.90
2023-09-09T18:32:56.314Z,71.99
2023-09-09T18:35:24.247Z,72.05
2023-09-09T18:37:52.250Z,72.23
2023-09-09T18:40:20.189Z,72.37
2023-09-09T18:42:48.133Z,72.47
2023-09-09T18:45:16.290Z,72.62
2023-09-09T18:47:44.264Z,72.78
2023-09-09T18:50:12.454Z,72.90
2023-09-09T18:52:40.525Z,72.95
2023-09-09T18:55:09.268Z,73.20
2023-09-09T18:57:37.231Z,73.40
2023-09-09T19:00:06.551Z,73.53
2023-09-09T19:02:34.645Z,73.61
2023-09-09T19:05:02.961Z,73.93
2023-09-09T19:07:39.924Z,74.44
2023-09-09T19:10:11.236Z,74.48
2023-09-09T19:12:39.429Z,74.83
2023-09-09T19:15:08.366Z,74.75
2023-09-09T19:17:37.132Z,75.09
2023-09-09T19:20:07.171Z,75.41
2023-09-09T19:22:35.027Z,75.50
2023-09-09T19:25:03.904Z,75.56
2023-09-09T19:27:32.429Z,75.61
2023-09-09T19:30:01.082Z,75.74
2023-09-09T19:32:29.675Z,76.11
2023-09-09T19:34:57.967Z,76.14
2023-09-09T19:37:26.328Z,75.93
2023-09-09T19:39:59.388Z,76.26
2023-09-09T19:42:29.602Z,76.21
2023-09-09T19:44:59.251Z,76.38
2023-09-09T19:47:27.416Z,77.08
2023-09-09T19:49:55.772Z,77.33
2023-09-09T19:52:23.889Z,77.05
2023-09-09T19:54:52.045Z,77.13
2023-09-09T19:57:20.221Z,77.46
2023-09-09T19:59:48.257Z,78.35
2023-09-09T20:02:16.482Z,77.60
2023-09-09T20:04:44.831Z,77.88
2023-09-09T20:07:12.942Z,77.73
2023-09-09T20:10:00.014Z,77.45
2023-09-09T20:12:28.070Z,77.34
2023-09-09T20:14:56.191Z,77.33
2023-09-09T20:17:24.329Z,77.26
2023-09-09T20:19:52.598Z,77.60
2023-09-09T20:22:21.644Z,77.57
2023-09-09T20:24:49.864Z,78.32
2023-09-09T20:27:18.594Z,79.12
2023-09-09T20:29:46.461Z,78.50
2023-09-09T20:32:14.582Z,78.08
2023-09-09T20:34:43.016Z,77.97
2023-09-09T20:37:11.092Z,78.07
2023-09-09T20:39:40.028Z,78.25
2023-09-09T20:42:08.097Z,78.50
2023-09-09T20:44:36.421Z,78.95
2023-09-09T20:47:04.788Z,78.62
2023-09-09T20:49:33.161Z,78.69
2023-09-09T20:52:01.130Z,78.95
2023-09-09T20:54:29.151Z,78.97
2023-09-09T20:56:57.263Z,79.35
2023-09-09T20:59:25.161Z,80.07
2023-09-09T21:01:53.083Z,79.63
2023-09-09T21:04:21.454Z,80.96
2023-09-09T21:06:49.735Z,80.10
2023-09-09T21:09:18.234Z,79.76
2023-09-09T21:11:46.036Z,79.43
2023-09-09T21:14:14.009Z,79.75
2023-09-09T21:16:42.098Z,80.03
2023-09-09T21:19:09.986Z,80.08
2023-09-09T21:21:37.845Z,79.62
2023-09-09T21:24:08.351Z,79.86
2023-09-09T21:26:36.615Z,79.93
2023-09-09T21:29:04.615Z,79.58
2023-09-09T21:31:32.744Z,80.89
2023-09-09T21:34:01.167Z,80.36
2023-09-09T21:36:29.209Z,79.63
2023-09-09T21:38:57.389Z,79.51
2023-09-09T21:41:25.279Z,79.68
2023-09-09T21:43:53.234Z,80.01
2023-09-09T21:46:21.878Z,79.81
2023-09-09T21:48:50.628Z,80.09
2023-09-09T21:51:18.841Z,80.67
2023-09-09T21:53:46.897Z,80.31
2023-09-09T21:56:14.998Z,80.69
2023-09-09T21:58:43.129Z,80.78
2023-09-09T22:01:13.931Z,80.95
2023-09-09T22:03:45.884Z,81.94
2023-09-09T22:06:14.208Z,81.95
2023-09-09T22:08:42.196Z,82.28
2023-09-09T22:11:10.361Z,81.70
2023-09-09T22:13:39.059Z,81.16
2023-09-09T22:16:08.935Z,82.29
2023-09-09T22:18:38.414Z,81.55
2023-09-09T22:21:09.676Z,80.61
2023-09-09T22:23:38.637Z,80.51
2023-09-09T22:26:28.659Z,81.00
2023-09-09T22:28:57.639Z,80.12
2023-09-09T22:31:26.081Z,81.61
2023-09-09T22:33:55.123Z,80.66
2023-09-09T22:36:23.011Z,80.56
2023-09-09T22:38:52.733Z,79.99
2023-09-09T22:41:20.656Z,81.01
2023-09-09T22:43:48.541Z,80.58
2023-09-09T22:46:16.710Z,80.21
2023-09-09T22:48:44.596Z,79.19
2023-09-09T22:51:12.800Z,79.43
2023-09-09T22:53:40.892Z,79.28
2023-09-09T22:56:08.863Z,80.35
2023-09-09T22:58:37.079Z,80.16
2023-09-09T23:01:05.955Z,80.62
2023-09-09T23:03:34.399Z,80.12
2023-09-09T23:06:05.185Z,80.41
2023-09-09T23:08:34.145Z,79.81
2023-09-09T23:11:12.330Z,78.71
2023-09-09T23:13:42.599Z,78.76
2023-09-09T23:16:10.858Z,79.77
2023-09-09T23:18:39.798Z,80.02
2023-09-09T23:21:08.124Z,80.14
2023-09-09T23:23:37.699Z,79.76
2023-09-09T23:26:05.784Z,79.86
2023-09-09T23:28:33.647Z,80.02
2023-09-09T23:31:03.459Z,80.10
2023-09-09T23:33:32.683Z,79.82
2023-09-09T23:36:02.567Z,79.02
2023-09-09T23:38:31.982Z,79.64
2023-09-09T23:41:00.803Z,79.80
2023-09-09T23:43:28.872Z,79.92
2023-09-09T23:45:57.045Z,80.30
2023-09-09T23:48:26.158Z,79.91
2023-09-09T23:50:54.027Z,79.49
2023-09-09T23:53:21.873Z,79.21
2023-09-09T23:55:50.928Z,78.76
2023-09-09T23:58:20.573Z,78.25
